sensor_id;sensor_type;location;lat;lon;timestamp;P1;durP1;ratioP1;P2;durP2;ratioP2
13807;SDS011;40769;51.512;5.494;2024-03-02T00:01:58;1.00;;;0.75;;
13807;SDS011;40769;51.512;5.494;2024-03-02T00:04:23;0.90;;;0.80;;
13807;SDS011;40769;51.512;5.494;2024-03-02T00:06:51;0.90;;;0.65;;
13807;SDS011;40769;51.512;5.494;2024-03-02T00:09:19;1.40;;;0.98;;
13807;SDS011;40769;51.512;5.494;2024-03-02T00:11:45;1.10;;;0.80;;
13807;SDS011;40769;51.512;5.494;2024-03-02T00:14:11;0.73;;;0.70;;
13807;SDS011;40769;51.512;5.494;2024-03-02T00:16:37;1.13;;;0.90;;
13807;SDS011;40769;51.512;5.494;2024-03-02T00:19:02;0.63;;;0.60;;
13807;SDS011;40769;51.512;5.494;2024-03-02T00:21:30;0.50;;;0.50;;
13807;SDS011;40769;51.512;5.494;2024-03-02T00:23:56;0.68;;;0.50;;
13807;SDS011;40769;51.512;5.494;2024-03-02T00:26:22;0.80;;;0.38;;
13807;SDS011;40769;51.512;5.494;2024-03-02T00:28:47;0.30;;;0.30;;
13807;SDS011;40769;51.512;5.494;2024-03-02T00:31:19;0.55;;;0.32;;
13807;SDS011;40769;51.512;5.494;2024-03-02T00:33:46;1.35;;;0.47;;
13807;SDS011;40769;51.512;5.494;2024-03-02T00:36:13;0.45;;;0.40;;
13807;SDS011;40769;51.512;5.494;2024-03-02T00:38:44;0.30;;;0.30;;
13807;SDS011;40769;51.512;5.494;2024-03-02T00:41:15;0.82;;;0.32;;
13807;SDS011;40769;51.512;5.494;2024-03-02T00:46:20;0.38;;;0.38;;
13807;SDS011;40769;51.512;5.494;2024-03-02T00:48:53;0.50;;;0.40;;
13807;SDS011;40769;51.512;5.494;2024-03-02T00:51:21;0.65;;;0.30;;
13807;SDS011;40769;51.512;5.494;2024-03-02T00:53:48;0.52;;;0.40;;
13807;SDS011;40769;51.512;5.494;2024-03-02T00:56:14;0.50;;;0.50;;
13807;SDS011;40769;51.512;5.494;2024-03-02T00:58:40;1.67;;;0.60;;
13807;SDS011;40769;51.512;5.494;2024-03-02T01:01:06;0.95;;;0.50;;
13807;SDS011;40769;51.512;5.494;2024-03-02T01:03:32;0.70;;;0.50;;
13807;SDS011;40769;51.512;5.494;2024-03-02T01:05:58;0.50;;;0.40;;
13807;SDS011;40769;51.512;5.494;2024-03-02T01:08:24;0.40;;;0.30;;
13807;SDS011;40769;51.512;5.494;2024-03-02T01:10:51;0.20;;;0.20;;
13807;SDS011;40769;51.512;5.494;2024-03-02T01:13:17;0.60;;;0.30;;
13807;SDS011;40769;51.512;5.494;2024-03-02T01:15:42;0.20;;;0.20;;
13807;SDS011;40769;51.512;5.494;2024-03-02T01:18:08;0.50;;;0.30;;
13807;SDS011;40769;51.512;5.494;2024-03-02T01:20:34;0.50;;;0.30;;
13807;SDS011;40769;51.512;5.494;2024-03-02T01:23:00;0.30;;;0.30;;
13807;SDS011;40769;51.512;5.494;2024-03-02T01:25:25;0.35;;;0.35;;
13807;SDS011;40769;51.512;5.494;2024-03-02T01:27:51;0.30;;;0.30;;
13807;SDS011;40769;51.512;5.494;2024-03-02T01:30:17;0.38;;;0.35;;
13807;SDS011;40769;51.512;5.494;2024-03-02T01:32:42;0.50;;;0.30;;
13807;SDS011;40769;51.512;5.494;2024-03-02T01:35:08;0.30;;;0.30;;
13807;SDS011;40769;51.512;5.494;2024-03-02T01:37:34;0.35;;;0.30;;
13807;SDS011;40769;51.512;5.494;2024-03-02T01:39:59;0.32;;;0.30;;
13807;SDS011;40769;51.512;5.494;2024-03-02T01:42:25;0.22;;;0.22;;
13807;SDS011;40769;51.512;5.494;2024-03-02T01:44:51;0.77;;;0.30;;
13807;SDS011;40769;51.512;5.494;2024-03-02T01:47:16;0.40;;;0.20;;
13807;SDS011;40769;51.512;5.494;2024-03-02T01:49:42;0.30;;;0.20;;
13807;SDS011;40769;51.512;5.494;2024-03-02T01:52:08;0.40;;;0.30;;
13807;SDS011;40769;51.512;5.494;2024-03-02T01:54:34;0.40;;;0.30;;
13807;SDS011;40769;51.512;5.494;2024-03-02T01:57:01;1.08;;;0.20;;
13807;SDS011;40769;51.512;5.494;2024-03-02T01:59:26;0.32;;;0.32;;
13807;SDS011;40769;51.512;5.494;2024-03-02T02:01:52;0.40;;;0.40;;
13807;SDS011;40769;51.512;5.494;2024-03-02T02:04:18;0.30;;;0.30;;
13807;SDS011;40769;51.512;5.494;2024-03-02T02:06:46;0.35;;;0.30;;
13807;SDS011;40769;51.512;5.494;2024-03-02T02:09:12;0.60;;;0.40;;
13807;SDS011;40769;51.512;5.494;2024-03-02T02:11:37;0.30;;;0.30;;
13807;SDS011;40769;51.512;5.494;2024-03-02T02:14:03;0.73;;;0.45;;
13807;SDS011;40769;51.512;5.494;2024-03-02T02:16:29;0.30;;;0.30;;
13807;SDS011;40769;51.512;5.494;2024-03-02T02:18:54;0.40;;;0.30;;
13807;SDS011;40769;51.512;5.494;2024-03-02T02:21:23;0.28;;;0.28;;
13807;SDS011;40769;51.512;5.494;2024-03-02T02:23:49;0.20;;;0.20;;
13807;SDS011;40769;51.512;5.494;2024-03-02T02:26:15;0.30;;;0.20;;
13807;SDS011;40769;51.512;5.494;2024-03-02T02:28:41;0.30;;;0.20;;
13807;SDS011;40769;51.512;5.494;2024-03-02T02:31:12;0.52;;;0.43;;
13807;SDS011;40769;51.512;5.494;2024-03-02T02:33:40;0.40;;;0.30;;
13807;SDS011;40769;51.512;5.494;2024-03-02T02:36:06;0.40;;;0.40;;
13807;SDS011;40769;51.512;5.494;2024-03-02T02:38:32;0.40;;;0.30;;
13807;SDS011;40769;51.512;5.494;2024-03-02T02:41:01;0.25;;;0.20;;
13807;SDS011;40769;51.512;5.494;2024-03-02T02:43:27;0.20;;;0.20;;
13807;SDS011;40769;51.512;5.494;2024-03-02T02:45:53;0.30;;;0.30;;
13807;SDS011;40769;51.512;5.494;2024-03-02T02:48:18;0.30;;;0.30;;
13807;SDS011;40769;51.512;5.494;2024-03-02T02:50:44;0.30;;;0.30;;
13807;SDS011;40769;51.512;5.494;2024-03-02T02:53:09;0.50;;;0.30;;
13807;SDS011;40769;51.512;5.494;2024-03-02T02:55:35;0.30;;;0.22;;
13807;SDS011;40769;51.512;5.494;2024-03-02T02:58:05;0.68;;;0.30;;
13807;SDS011;40769;51.512;5.494;2024-03-02T03:00:31;0.25;;;0.20;;
13807;SDS011;40769;51.512;5.494;2024-03-02T03:02:57;0.30;;;0.30;;
13807;SDS011;40769;51.512;5.494;2024-03-02T03:05:23;0.35;;;0.28;;
13807;SDS011;40769;51.512;5.494;2024-03-02T03:07:49;0.40;;;0.40;;
13807;SDS011;40769;51.512;5.494;2024-03-02T03:10:15;0.20;;;0.20;;
13807;SDS011;40769;51.512;5.494;2024-03-02T03:12:41;0.28;;;0.28;;
13807;SDS011;40769;51.512;5.494;2024-03-02T03:15:10;0.40;;;0.30;;
13807;SDS011;40769;51.512;5.494;2024-03-02T03:17:36;0.40;;;0.30;;
13807;SDS011;40769;51.512;5.494;2024-03-02T03:20:02;0.40;;;0.40;;
13807;SDS011;40769;51.512;5.494;2024-03-02T03:22:29;0.20;;;0.20;;
13807;SDS011;40769;51.512;5.494;2024-03-02T03:24:56;0.40;;;0.40;;
13807;SDS011;40769;51.512;5.494;2024-03-02T03:27:22;0.65;;;0.35;;
13807;SDS011;40769;51.512;5.494;2024-03-02T03:29:48;0.32;;;0.20;;
13807;SDS011;40769;51.512;5.494;2024-03-02T03:32:13;1.48;;;0.30;;
13807;SDS011;40769;51.512;5.494;2024-03-02T03:34:39;0.20;;;0.20;;
13807;SDS011;40769;51.512;5.494;2024-03-02T03:37:05;0.32;;;0.32;;
13807;SDS011;40769;51.512;5.494;2024-03-02T03:39:31;0.25;;;0.20;;
13807;SDS011;40769;51.512;5.494;2024-03-02T03:41:58;0.40;;;0.20;;
13807;SDS011;40769;51.512;5.494;2024-03-02T03:44:24;0.40;;;0.30;;
13807;SDS011;40769;51.512;5.494;2024-03-02T03:46:50;0.20;;;0.20;;
13807;SDS011;40769;51.512;5.494;2024-03-02T03:49:15;0.50;;;0.32;;
13807;SDS011;40769;51.512;5.494;2024-03-02T03:51:42;0.20;;;0.20;;
13807;SDS011;40769;51.512;5.494;2024-03-02T03:54:08;0.22;;;0.20;;
13807;SDS011;40769;51.512;5.494;2024-03-02T03:56:33;0.52;;;0.40;;
13807;SDS011;40769;51.512;5.494;2024-03-02T03:58:59;0.50;;;0.30;;
13807;SDS011;40769;51.512;5.494;2024-03-02T04:01:25;0.40;;;0.30;;
13807;SDS011;40769;51.512;5.494;2024-03-02T04:03:53;0.30;;;0.20;;
13807;SDS011;40769;51.512;5.494;2024-03-02T04:06:19;0.68;;;0.52;;
13807;SDS011;40769;51.512;5.494;2024-03-02T04:08:44;0.90;;;0.40;;
13807;SDS011;40769;51.512;5.494;2024-03-02T04:11:10;0.40;;;0.30;;
13807;SDS011;40769;51.512;5.494;2024-03-02T04:13:35;0.30;;;0.20;;
13807;SDS011;40769;51.512;5.494;2024-03-02T04:16:01;0.38;;;0.30;;
13807;SDS011;40769;51.512;5.494;2024-03-02T04:18:28;0.17;;;0.17;;
13807;SDS011;40769;51.512;5.494;2024-03-02T04:20:54;0.40;;;0.40;;
13807;SDS011;40769;51.512;5.494;2024-03-02T04:23:19;0.35;;;0.30;;
13807;SDS011;40769;51.512;5.494;2024-03-02T04:25:45;0.45;;;0.30;;
13807;SDS011;40769;51.512;5.494;2024-03-02T04:28:11;0.30;;;0.30;;
13807;SDS011;40769;51.512;5.494;2024-03-02T04:30:37;0.20;;;0.20;;
13807;SDS011;40769;51.512;5.494;2024-03-02T04:33:03;0.25;;;0.20;;
13807;SDS011;40769;51.512;5.494;2024-03-02T04:35:30;0.40;;;0.30;;
13807;SDS011;40769;51.512;5.494;2024-03-02T04:37:56;0.40;;;0.30;;
13807;SDS011;40769;51.512;5.494;2024-03-02T04:40:21;0.30;;;0.30;;
13807;SDS011;40769;51.512;5.494;2024-03-02T04:42:47;0.40;;;0.30;;
13807;SDS011;40769;51.512;5.494;2024-03-02T04:45:12;0.30;;;0.30;;
13807;SDS011;40769;51.512;5.494;2024-03-02T04:47:38;0.30;;;0.20;;
13807;SDS011;40769;51.512;5.494;2024-03-02T04:50:04;0.45;;;0.22;;
13807;SDS011;40769;51.512;5.494;2024-03-02T04:52:30;0.50;;;0.40;;
13807;SDS011;40769;51.512;5.494;2024-03-02T04:54:56;0.70;;;0.50;;
13807;SDS011;40769;51.512;5.494;2024-03-02T04:57:40;0.28;;;0.28;;
13807;SDS011;40769;51.512;5.494;2024-03-02T05:00:06;0.50;;;0.40;;
13807;SDS011;40769;51.512;5.494;2024-03-02T05:02:33;0.28;;;0.28;;
13807;SDS011;40769;51.512;5.494;2024-03-02T05:04:59;0.17;;;0.17;;
13807;SDS011;40769;51.512;5.494;2024-03-02T05:07:25;0.52;;;0.30;;
13807;SDS011;40769;51.512;5.494;2024-03-02T05:09:51;0.50;;;0.40;;
13807;SDS011;40769;51.512;5.494;2024-03-02T05:12:17;0.30;;;0.30;;
13807;SDS011;40769;51.512;5.494;2024-03-02T05:14:42;0.20;;;0.20;;
13807;SDS011;40769;51.512;5.494;2024-03-02T05:17:08;0.65;;;0.43;;
13807;SDS011;40769;51.512;5.494;2024-03-02T05:19:33;0.38;;;0.30;;
13807;SDS011;40769;51.512;5.494;2024-03-02T05:21:59;0.43;;;0.40;;
13807;SDS011;40769;51.512;5.494;2024-03-02T05:24:25;0.55;;;0.20;;
13807;SDS011;40769;51.512;5.494;2024-03-02T05:26:52;0.20;;;0.20;;
13807;SDS011;40769;51.512;5.494;2024-03-02T05:29:18;0.25;;;0.25;;
13807;SDS011;40769;51.512;5.494;2024-03-02T05:31:44;0.68;;;0.25;;
13807;SDS011;40769;51.512;5.494;2024-03-02T05:34:09;0.30;;;0.30;;
13807;SDS011;40769;51.512;5.494;2024-03-02T05:36:35;0.85;;;0.40;;
13807;SDS011;40769;51.512;5.494;2024-03-02T05:39:02;0.20;;;0.20;;
13807;SDS011;40769;51.512;5.494;2024-03-02T05:41:30;0.38;;;0.30;;
13807;SDS011;40769;51.512;5.494;2024-03-02T05:43:56;0.60;;;0.40;;
13807;SDS011;40769;51.512;5.494;2024-03-02T05:46:22;0.40;;;0.40;;
13807;SDS011;40769;51.512;5.494;2024-03-02T05:48:47;0.43;;;0.40;;
13807;SDS011;40769;51.512;5.494;2024-03-02T05:51:13;0.47;;;0.38;;
13807;SDS011;40769;51.512;5.494;2024-03-02T05:53:38;0.22;;;0.20;;
13807;SDS011;40769;51.512;5.494;2024-03-02T05:56:04;0.35;;;0.30;;
13807;SDS011;40769;51.512;5.494;2024-03-02T05:58:31;0.70;;;0.40;;
13807;SDS011;40769;51.512;5.494;2024-03-02T06:01:15;0.50;;;0.30;;
13807;SDS011;40769;51.512;5.494;2024-03-02T06:03:43;0.43;;;0.40;;
13807;SDS011;40769;51.512;5.494;2024-03-02T06:06:08;0.30;;;0.28;;
13807;SDS011;40769;51.512;5.494;2024-03-02T06:08:34;0.43;;;0.30;;
13807;SDS011;40769;51.512;5.494;2024-03-02T06:11:00;0.82;;;0.40;;
13807;SDS011;40769;51.512;5.494;2024-03-02T06:13:26;0.43;;;0.22;;
13807;SDS011;40769;51.512;5.494;2024-03-02T06:15:51;0.63;;;0.40;;
13807;SDS011;40769;51.512;5.494;2024-03-02T06:18:17;0.43;;;0.40;;
13807;SDS011;40769;51.512;5.494;2024-03-02T06:20:43;0.40;;;0.40;;
13807;SDS011;40769;51.512;5.494;2024-03-02T06:23:08;0.50;;;0.50;;
13807;SDS011;40769;51.512;5.494;2024-03-02T06:25:34;1.02;;;0.40;;
13807;SDS011;40769;51.512;5.494;2024-03-02T06:27:59;0.57;;;0.28;;
13807;SDS011;40769;51.512;5.494;2024-03-02T06:30:25;0.73;;;0.40;;
13807;SDS011;40769;51.512;5.494;2024-03-02T06:32:51;0.30;;;0.20;;
13807;SDS011;40769;51.512;5.494;2024-03-02T06:35:16;0.63;;;0.30;;
13807;SDS011;40769;51.512;5.494;2024-03-02T06:37:42;0.40;;;0.38;;
13807;SDS011;40769;51.512;5.494;2024-03-02T06:40:07;0.38;;;0.28;;
13807;SDS011;40769;51.512;5.494;2024-03-02T06:42:34;0.50;;;0.50;;
13807;SDS011;40769;51.512;5.494;2024-03-02T06:45:00;0.93;;;0.80;;
13807;SDS011;40769;51.512;5.494;2024-03-02T06:47:27;1.40;;;0.88;;
13807;SDS011;40769;51.512;5.494;2024-03-02T06:49:52;0.82;;;0.57;;
13807;SDS011;40769;51.512;5.494;2024-03-02T06:52:18;0.52;;;0.47;;
13807;SDS011;40769;51.512;5.494;2024-03-02T06:54:45;0.80;;;0.40;;
13807;SDS011;40769;51.512;5.494;2024-03-02T06:57:11;0.70;;;0.60;;
13807;SDS011;40769;51.512;5.494;2024-03-02T06:59:37;0.40;;;0.30;;
13807;SDS011;40769;51.512;5.494;2024-03-02T07:02:02;0.85;;;0.40;;
13807;SDS011;40769;51.512;5.494;2024-03-02T07:04:28;0.60;;;0.40;;
13807;SDS011;40769;51.512;5.494;2024-03-02T07:06:54;0.50;;;0.40;;
13807;SDS011;40769;51.512;5.494;2024-03-02T07:09:20;0.43;;;0.35;;
13807;SDS011;40769;51.512;5.494;2024-03-02T07:11:47;0.80;;;0.47;;
13807;SDS011;40769;51.512;5.494;2024-03-02T07:14:14;0.75;;;0.30;;
13807;SDS011;40769;51.512;5.494;2024-03-02T07:16:40;0.55;;;0.40;;
13807;SDS011;40769;51.512;5.494;2024-03-02T07:19:05;0.50;;;0.40;;
13807;SDS011;40769;51.512;5.494;2024-03-02T07:21:31;0.68;;;0.50;;
13807;SDS011;40769;51.512;5.494;2024-03-02T07:23:58;0.70;;;0.50;;
13807;SDS011;40769;51.512;5.494;2024-03-02T07:26:24;0.40;;;0.40;;
13807;SDS011;40769;51.512;5.494;2024-03-02T07:28:50;0.70;;;0.60;;
13807;SDS011;40769;51.512;5.494;2024-03-02T07:31:16;1.02;;;0.47;;
13807;SDS011;40769;51.512;5.494;2024-03-02T07:33:45;1.45;;;0.50;;
13807;SDS011;40769;51.512;5.494;2024-03-02T07:36:13;0.80;;;0.80;;
13807;SDS011;40769;51.512;5.494;2024-03-02T07:38:39;0.70;;;0.70;;
13807;SDS011;40769;51.512;5.494;2024-03-02T07:41:05;0.77;;;0.60;;
13807;SDS011;40769;51.512;5.494;2024-03-02T07:43:32;0.60;;;0.40;;
13807;SDS011;40769;51.512;5.494;2024-03-02T07:45:58;0.95;;;0.50;;
13807;SDS011;40769;51.512;5.494;2024-03-02T07:48:24;1.33;;;0.70;;
13807;SDS011;40769;51.512;5.494;2024-03-02T07:50:50;0.93;;;0.60;;
13807;SDS011;40769;51.512;5.494;2024-03-02T07:53:16;0.60;;;0.57;;
13807;SDS011;40769;51.512;5.494;2024-03-02T07:55:42;0.80;;;0.57;;
13807;SDS011;40769;51.512;5.494;2024-03-02T07:58:07;0.50;;;0.40;;
13807;SDS011;40769;51.512;5.494;2024-03-02T08:00:33;0.45;;;0.45;;
13807;SDS011;40769;51.512;5.494;2024-03-02T08:03:00;0.75;;;0.52;;
13807;SDS011;40769;51.512;5.494;2024-03-02T08:05:26;1.60;;;0.70;;
13807;SDS011;40769;51.512;5.494;2024-03-02T08:07:52;0.75;;;0.47;;
13807;SDS011;40769;51.512;5.494;2024-03-02T08:10:18;0.68;;;0.50;;
13807;SDS011;40769;51.512;5.494;2024-03-02T08:12:44;1.40;;;0.50;;
13807;SDS011;40769;51.512;5.494;2024-03-02T08:15:10;0.50;;;0.50;;
13807;SDS011;40769;51.512;5.494;2024-03-02T08:17:37;0.63;;;0.45;;
13807;SDS011;40769;51.512;5.494;2024-03-02T08:20:09;0.80;;;0.57;;
13807;SDS011;40769;51.512;5.494;2024-03-02T08:22:36;0.75;;;0.50;;
13807;SDS011;40769;51.512;5.494;2024-03-02T08:25:03;1.13;;;0.80;;
13807;SDS011;40769;51.512;5.494;2024-03-02T08:27:29;0.75;;;0.50;;
13807;SDS011;40769;51.512;5.494;2024-03-02T08:29:54;0.80;;;0.60;;
13807;SDS011;40769;51.512;5.494;2024-03-02T08:32:20;0.85;;;0.70;;
13807;SDS011;40769;51.512;5.494;2024-03-02T08:34:46;1.02;;;0.60;;
13807;SDS011;40769;51.512;5.494;2024-03-02T08:37:11;0.77;;;0.57;;
13807;SDS011;40769;51.512;5.494;2024-03-02T08:39:37;0.95;;;0.73;;
13807;SDS011;40769;51.512;5.494;2024-03-02T08:42:02;0.95;;;0.50;;
13807;SDS011;40769;51.512;5.494;2024-03-02T08:44:29;0.63;;;0.60;;
13807;SDS011;40769;51.512;5.494;2024-03-02T08:46:55;1.02;;;0.50;;
13807;SDS011;40769;51.512;5.494;2024-03-02T08:49:21;1.02;;;0.63;;
13807;SDS011;40769;51.512;5.494;2024-03-02T08:51:46;1.45;;;0.60;;
13807;SDS011;40769;51.512;5.494;2024-03-02T08:54:19;0.52;;;0.40;;
13807;SDS011;40769;51.512;5.494;2024-03-02T08:56:48;0.63;;;0.50;;
13807;SDS011;40769;51.512;5.494;2024-03-02T08:59:14;0.73;;;0.47;;
13807;SDS011;40769;51.512;5.494;2024-03-02T09:01:40;0.82;;;0.55;;
13807;SDS011;40769;51.512;5.494;2024-03-02T09:04:07;1.95;;;0.60;;
13807;SDS011;40769;51.512;5.494;2024-03-02T09:06:33;1.15;;;0.50;;
13807;SDS011;40769;51.512;5.494;2024-03-02T09:08:59;1.52;;;0.43;;
13807;SDS011;40769;51.512;5.494;2024-03-02T09:11:25;1.13;;;0.50;;
13807;SDS011;40769;51.512;5.494;2024-03-02T09:13:51;1.27;;;0.70;;
13807;SDS011;40769;51.512;5.494;2024-03-02T09:16:18;1.38;;;0.70;;
13807;SDS011;40769;51.512;5.494;2024-03-02T09:18:44;1.17;;;0.82;;
13807;SDS011;40769;51.512;5.494;2024-03-02T09:21:10;1.17;;;0.57;;
13807;SDS011;40769;51.512;5.494;2024-03-02T09:23:35;0.90;;;0.60;;
13807;SDS011;40769;51.512;5.494;2024-03-02T09:26:01;3.10;;;0.95;;
13807;SDS011;40769;51.512;5.494;2024-03-02T09:28:28;1.23;;;0.60;;
13807;SDS011;40769;51.512;5.494;2024-03-02T09:30:53;1.20;;;0.80;;
13807;SDS011;40769;51.512;5.494;2024-03-02T09:33:19;0.70;;;0.70;;
13807;SDS011;40769;51.512;5.494;2024-03-02T09:35:45;1.35;;;0.60;;
13807;SDS011;40769;51.512;5.494;2024-03-02T09:38:10;1.25;;;0.85;;
13807;SDS011;40769;51.512;5.494;2024-03-02T09:40:36;0.60;;;0.50;;
13807;SDS011;40769;51.512;5.494;2024-03-02T09:43:02;1.67;;;0.68;;
13807;SDS011;40769;51.512;5.494;2024-03-02T09:45:28;1.02;;;0.50;;
13807;SDS011;40769;51.512;5.494;2024-03-02T09:47:55;0.77;;;0.60;;
13807;SDS011;40769;51.512;5.494;2024-03-02T09:50:20;1.25;;;0.80;;
13807;SDS011;40769;51.512;5.494;2024-03-02T09:52:48;1.48;;;0.70;;
13807;SDS011;40769;51.512;5.494;2024-03-02T09:55:15;1.10;;;0.60;;
13807;SDS011;40769;51.512;5.494;2024-03-02T09:57:42;1.85;;;0.80;;
13807;SDS011;40769;51.512;5.494;2024-03-02T10:00:08;1.42;;;0.60;;
13807;SDS011;40769;51.512;5.494;2024-03-02T10:02:39;1.85;;;0.70;;
13807;SDS011;40769;51.512;5.494;2024-03-02T10:05:06;0.82;;;0.60;;
13807;SDS011;40769;51.512;5.494;2024-03-02T10:07:32;1.17;;;0.68;;
13807;SDS011;40769;51.512;5.494;2024-03-02T10:09:58;1.13;;;0.60;;
13807;SDS011;40769;51.512;5.494;2024-03-02T10:12:40;1.40;;;0.50;;
13807;SDS011;40769;51.512;5.494;2024-03-02T10:15:06;1.25;;;0.60;;
13807;SDS011;40769;51.512;5.494;2024-03-02T10:17:32;1.73;;;0.65;;
13807;SDS011;40769;51.512;5.494;2024-03-02T10:19:58;1.70;;;0.90;;
13807;SDS011;40769;51.512;5.494;2024-03-02T10:22:24;0.95;;;0.60;;
13807;SDS011;40769;51.512;5.494;2024-03-02T10:24:51;0.82;;;0.52;;
13807;SDS011;40769;51.512;5.494;2024-03-02T10:27:18;1.65;;;0.60;;
13807;SDS011;40769;51.512;5.494;2024-03-02T10:29:48;1.80;;;0.57;;
13807;SDS011;40769;51.512;5.494;2024-03-02T10:32:15;1.13;;;0.60;;
13807;SDS011;40769;51.512;5.494;2024-03-02T10:34:41;1.45;;;0.65;;
13807;SDS011;40769;51.512;5.494;2024-03-02T10:37:08;0.70;;;0.60;;
13807;SDS011;40769;51.512;5.494;2024-03-02T10:39:35;0.80;;;0.60;;
13807;SDS011;40769;51.512;5.494;2024-03-02T10:42:04;1.08;;;0.60;;
13807;SDS011;40769;51.512;5.494;2024-03-02T10:44:31;1.25;;;0.73;;
13807;SDS011;40769;51.512;5.494;2024-03-02T10:46:59;1.20;;;0.70;;
13807;SDS011;40769;51.512;5.494;2024-03-02T10:49:32;1.40;;;0.60;;
13807;SDS011;40769;51.512;5.494;2024-03-02T10:51:58;1.45;;;0.60;;
13807;SDS011;40769;51.512;5.494;2024-03-02T10:54:24;2.10;;;0.68;;
13807;SDS011;40769;51.512;5.494;2024-03-02T10:56:55;0.90;;;0.60;;
13807;SDS011;40769;51.512;5.494;2024-03-02T10:59:34;1.05;;;0.70;;
13807;SDS011;40769;51.512;5.494;2024-03-02T11:02:02;1.10;;;0.70;;
13807;SDS011;40769;51.512;5.494;2024-03-02T11:04:33;1.02;;;0.60;;
13807;SDS011;40769;51.512;5.494;2024-03-02T11:09:31;1.83;;;0.60;;
13807;SDS011;40769;51.512;5.494;2024-03-02T11:14:43;0.55;;;0.50;;
13807;SDS011;40769;51.512;5.494;2024-03-02T11:17:09;1.40;;;0.70;;
13807;SDS011;40769;51.512;5.494;2024-03-02T11:19:40;1.83;;;0.70;;
13807;SDS011;40769;51.512;5.494;2024-03-02T11:22:07;1.77;;;0.75;;
13807;SDS011;40769;51.512;5.494;2024-03-02T11:24:34;0.77;;;0.60;;
13807;SDS011;40769;51.512;5.494;2024-03-02T11:27:04;2.28;;;0.70;;
13807;SDS011;40769;51.512;5.494;2024-03-02T11:32:06;1.27;;;0.60;;
13807;SDS011;40769;51.512;5.494;2024-03-02T11:34:43;0.90;;;0.50;;
13807;SDS011;40769;51.512;5.494;2024-03-02T11:37:12;1.13;;;0.60;;
13807;SDS011;40769;51.512;5.494;2024-03-02T11:39:38;1.33;;;0.70;;
13807;SDS011;40769;51.512;5.494;2024-03-02T11:42:07;1.83;;;0.80;;
13807;SDS011;40769;51.512;5.494;2024-03-02T11:44:36;1.55;;;0.90;;
13807;SDS011;40769;51.512;5.494;2024-03-02T11:47:07;1.15;;;0.77;;
13807;SDS011;40769;51.512;5.494;2024-03-02T11:49:53;0.93;;;0.70;;
13807;SDS011;40769;51.512;5.494;2024-03-02T11:52:19;0.60;;;0.50;;
13807;SDS011;40769;51.512;5.494;2024-03-02T11:54:47;0.85;;;0.52;;
13807;SDS011;40769;51.512;5.494;2024-03-02T11:57:14;0.98;;;0.77;;
13807;SDS011;40769;51.512;5.494;2024-03-02T11:59:42;1.10;;;0.77;;
13807;SDS011;40769;51.512;5.494;2024-03-02T12:02:13;1.00;;;0.60;;
13807;SDS011;40769;51.512;5.494;2024-03-02T12:04:41;0.93;;;0.50;;
13807;SDS011;40769;51.512;5.494;2024-03-02T12:07:08;1.65;;;0.73;;
13807;SDS011;40769;51.512;5.494;2024-03-02T12:09:34;1.15;;;0.70;;
13807;SDS011;40769;51.512;5.494;2024-03-02T12:14:32;0.85;;;0.55;;
13807;SDS011;40769;51.512;5.494;2024-03-02T12:17:01;1.30;;;0.73;;
13807;SDS011;40769;51.512;5.494;2024-03-02T12:19:27;2.30;;;0.80;;
13807;SDS011;40769;51.512;5.494;2024-03-02T12:21:58;1.05;;;0.70;;
13807;SDS011;40769;51.512;5.494;2024-03-02T12:24:26;1.77;;;0.80;;
13807;SDS011;40769;51.512;5.494;2024-03-02T12:26:54;1.02;;;0.80;;
13807;SDS011;40769;51.512;5.494;2024-03-02T12:29:20;0.90;;;0.50;;
13807;SDS011;40769;51.512;5.494;2024-03-02T12:31:48;0.95;;;0.80;;
13807;SDS011;40769;51.512;5.494;2024-03-02T12:34:15;0.70;;;0.65;;
13807;SDS011;40769;51.512;5.494;2024-03-02T12:36:42;1.50;;;0.68;;
13807;SDS011;40769;51.512;5.494;2024-03-02T12:39:08;1.13;;;0.70;;
13807;SDS011;40769;51.512;5.494;2024-03-02T12:41:37;1.33;;;0.80;;
13807;SDS011;40769;51.512;5.494;2024-03-02T12:44:03;1.60;;;0.90;;
13807;SDS011;40769;51.512;5.494;2024-03-02T12:46:30;0.82;;;0.65;;
13807;SDS011;40769;51.512;5.494;2024-03-02T12:49:04;1.02;;;0.65;;
13807;SDS011;40769;51.512;5.494;2024-03-02T12:51:32;1.52;;;0.80;;
13807;SDS011;40769;51.512;5.494;2024-03-02T12:53:58;0.65;;;0.60;;
13807;SDS011;40769;51.512;5.494;2024-03-02T12:56:25;1.00;;;0.73;;
13807;SDS011;40769;51.512;5.494;2024-03-02T12:58:54;1.33;;;0.60;;
13807;SDS011;40769;51.512;5.494;2024-03-02T13:01:20;1.40;;;0.85;;
13807;SDS011;40769;51.512;5.494;2024-03-02T13:03:48;0.90;;;0.70;;
13807;SDS011;40769;51.512;5.494;2024-03-02T13:06:16;1.27;;;0.80;;
13807;SDS011;40769;51.512;5.494;2024-03-02T13:08:42;1.83;;;0.80;;
13807;SDS011;40769;51.512;5.494;2024-03-02T13:11:07;1.88;;;0.82;;
13807;SDS011;40769;51.512;5.494;2024-03-02T13:13:34;1.20;;;0.80;;
13807;SDS011;40769;51.512;5.494;2024-03-02T13:16:00;1.80;;;0.68;;
13807;SDS011;40769;51.512;5.494;2024-03-02T13:18:28;0.82;;;0.50;;
13807;SDS011;40769;51.512;5.494;2024-03-02T13:20:54;1.98;;;0.80;;
13807;SDS011;40769;51.512;5.494;2024-03-02T13:23:21;0.90;;;0.80;;
13807;SDS011;40769;51.512;5.494;2024-03-02T13:25:46;1.25;;;0.82;;
13807;SDS011;40769;51.512;5.494;2024-03-02T13:28:12;1.15;;;0.82;;
13807;SDS011;40769;51.512;5.494;2024-03-02T13:30:38;1.50;;;0.80;;
13807;SDS011;40769;51.512;5.494;2024-03-02T13:33:04;1.67;;;0.80;;
13807;SDS011;40769;51.512;5.494;2024-03-02T13:35:30;1.15;;;0.60;;
13807;SDS011;40769;51.512;5.494;2024-03-02T13:37:55;0.73;;;0.65;;
13807;SDS011;40769;51.512;5.494;2024-03-02T13:40:21;1.00;;;0.70;;
13807;SDS011;40769;51.512;5.494;2024-03-02T13:42:48;0.98;;;0.70;;
13807;SDS011;40769;51.512;5.494;2024-03-02T13:45:18;0.70;;;0.60;;
13807;SDS011;40769;51.512;5.494;2024-03-02T13:47:44;0.80;;;0.52;;
13807;SDS011;40769;51.512;5.494;2024-03-02T13:50:10;1.60;;;0.80;;
13807;SDS011;40769;51.512;5.494;2024-03-02T13:52:35;0.65;;;0.60;;
13807;SDS011;40769;51.512;5.494;2024-03-02T13:55:01;1.30;;;0.52;;
13807;SDS011;40769;51.512;5.494;2024-03-02T13:57:27;0.98;;;0.70;;
13807;SDS011;40769;51.512;5.494;2024-03-02T13:59:53;1.30;;;0.80;;
13807;SDS011;40769;51.512;5.494;2024-03-02T14:02:19;1.77;;;0.90;;
13807;SDS011;40769;51.512;5.494;2024-03-02T14:04:45;1.38;;;0.73;;
13807;SDS011;40769;51.512;5.494;2024-03-02T14:07:13;1.17;;;0.52;;
13807;SDS011;40769;51.512;5.494;2024-03-02T14:09:38;1.25;;;0.88;;
13807;SDS011;40769;51.512;5.494;2024-03-02T14:12:04;1.92;;;0.90;;
13807;SDS011;40769;51.512;5.494;2024-03-02T14:14:30;1.75;;;0.90;;
13807;SDS011;40769;51.512;5.494;2024-03-02T14:16:56;2.03;;;0.80;;
13807;SDS011;40769;51.512;5.494;2024-03-02T14:19:25;1.10;;;0.70;;
13807;SDS011;40769;51.512;5.494;2024-03-02T14:21:51;0.75;;;0.50;;
13807;SDS011;40769;51.512;5.494;2024-03-02T14:24:16;1.08;;;0.68;;
13807;SDS011;40769;51.512;5.494;2024-03-02T14:26:42;0.73;;;0.63;;
13807;SDS011;40769;51.512;5.494;2024-03-02T14:29:08;1.17;;;0.70;;
13807;SDS011;40769;51.512;5.494;2024-03-02T14:31:36;3.60;;;0.65;;
13807;SDS011;40769;51.512;5.494;2024-03-02T14:34:02;0.90;;;0.60;;
13807;SDS011;40769;51.512;5.494;2024-03-02T14:36:27;0.80;;;0.60;;
13807;SDS011;40769;51.512;5.494;2024-03-02T14:38:53;1.48;;;0.60;;
13807;SDS011;40769;51.512;5.494;2024-03-02T14:41:19;1.27;;;0.63;;
13807;SDS011;40769;51.512;5.494;2024-03-02T14:43:45;1.05;;;0.60;;
13807;SDS011;40769;51.512;5.494;2024-03-02T14:46:14;1.02;;;0.50;;
13807;SDS011;40769;51.512;5.494;2024-03-02T14:48:41;0.85;;;0.60;;
13807;SDS011;40769;51.512;5.494;2024-03-02T14:51:06;0.85;;;0.68;;
13807;SDS011;40769;51.512;5.494;2024-03-02T14:53:32;1.17;;;0.65;;
13807;SDS011;40769;51.512;5.494;2024-03-02T14:55:57;0.90;;;0.60;;
13807;SDS011;40769;51.512;5.494;2024-03-02T14:58:23;0.95;;;0.57;;